sensor_id;sensor_type;location;lat;lon;timestamp;P1;durP1;ratioP1;P2;durP2;ratioP2
12966;SDS011;6548;49.996;8.238;2023-03-04T00:00:36;55.53;;;20.65;;
12966;SDS011;6548;49.996;8.238;2023-03-04T00:03:07;54.75;;;19.48;;
12966;SDS011;6548;49.996;8.238;2023-03-04T00:05:35;52.53;;;20.85;;
12966;SDS011;6548;49.996;8.238;2023-03-04T00:08:01;57.78;;;20.45;;
12966;SDS011;6548;49.996;8.238;2023-03-04T00:10:27;51.95;;;17.48;;
12966;SDS011;6548;49.996;8.238;2023-03-04T00:12:52;53.58;;;18.85;;
12966;SDS011;6548;49.996;8.238;2023-03-04T00:15:18;50.63;;;18.98;;
12966;SDS011;6548;49.996;8.238;2023-03-04T00:17:43;56.22;;;19.00;;
12966;SDS011;6548;49.996;8.238;2023-03-04T00:20:11;55.55;;;19.02;;
12966;SDS011;6548;49.996;8.238;2023-03-04T00:22:37;48.33;;;17.80;;
12966;SDS011;6548;49.996;8.238;2023-03-04T00:25:03;49.33;;;18.52;;
12966;SDS011;6548;49.996;8.238;2023-03-04T00:27:29;48.28;;;17.85;;
12966;SDS011;6548;49.996;8.238;2023-03-04T00:29:55;48.47;;;17.63;;
12966;SDS011;6548;49.996;8.238;2023-03-04T00:32:20;54.95;;;19.45;;
12966;SDS011;6548;49.996;8.238;2023-03-04T00:34:46;49.50;;;16.38;;
12966;SDS011;6548;49.996;8.238;2023-03-04T00:37:11;47.67;;;18.35;;
12966;SDS011;6548;49.996;8.238;2023-03-04T00:39:37;51.72;;;17.75;;
12966;SDS011;6548;49.996;8.238;2023-03-04T00:42:03;51.33;;;17.85;;
12966;SDS011;6548;49.996;8.238;2023-03-04T00:44:28;47.15;;;18.05;;
12966;SDS011;6548;49.996;8.238;2023-03-04T00:46:54;49.05;;;19.65;;
12966;SDS011;6548;49.996;8.238;2023-03-04T00:49:20;46.67;;;17.92;;
12966;SDS011;6548;49.996;8.238;2023-03-04T00:51:45;50.50;;;18.90;;
12966;SDS011;6548;49.996;8.238;2023-03-04T00:54:11;49.63;;;17.02;;
12966;SDS011;6548;49.996;8.238;2023-03-04T00:56:36;48.72;;;18.23;;
12966;SDS011;6548;49.996;8.238;2023-03-04T00:59:02;46.28;;;17.80;;
12966;SDS011;6548;49.996;8.238;2023-03-04T01:01:28;54.05;;;17.58;;
12966;SDS011;6548;49.996;8.238;2023-03-04T01:03:56;58.95;;;19.00;;
12966;SDS011;6548;49.996;8.238;2023-03-04T01:06:22;54.75;;;18.17;;
12966;SDS011;6548;49.996;8.238;2023-03-04T01:08:47;51.95;;;17.85;;
12966;SDS011;6548;49.996;8.238;2023-03-04T01:11:13;47.42;;;18.40;;
12966;SDS011;6548;49.996;8.238;2023-03-04T01:13:39;45.85;;;16.67;;
12966;SDS011;6548;49.996;8.238;2023-03-04T01:16:05;50.55;;;17.75;;
12966;SDS011;6548;49.996;8.238;2023-03-04T01:18:31;50.80;;;18.63;;
12966;SDS011;6548;49.996;8.238;2023-03-04T01:20:57;47.72;;;18.60;;
12966;SDS011;6548;49.996;8.238;2023-03-04T01:23:23;52.28;;;17.77;;
12966;SDS011;6548;49.996;8.238;2023-03-04T01:25:48;47.35;;;20.23;;
12966;SDS011;6548;49.996;8.238;2023-03-04T01:28:14;48.47;;;18.92;;
12966;SDS011;6548;49.996;8.238;2023-03-04T01:30:40;48.53;;;17.20;;
12966;SDS011;6548;49.996;8.238;2023-03-04T01:33:05;49.05;;;17.98;;
12966;SDS011;6548;49.996;8.238;2023-03-04T01:35:31;48.92;;;16.45;;
12966;SDS011;6548;49.996;8.238;2023-03-04T01:37:56;48.92;;;17.75;;
12966;SDS011;6548;49.996;8.238;2023-03-04T01:40:22;44.95;;;16.65;;
12966;SDS011;6548;49.996;8.238;2023-03-04T01:42:48;50.28;;;18.80;;
12966;SDS011;6548;49.996;8.238;2023-03-04T01:45:14;53.38;;;18.10;;
12966;SDS011;6548;49.996;8.238;2023-03-04T01:47:43;49.63;;;17.85;;
12966;SDS011;6548;49.996;8.238;2023-03-04T01:50:16;51.33;;;17.10;;
12966;SDS011;6548;49.996;8.238;2023-03-04T01:52:45;41.75;;;16.77;;
12966;SDS011;6548;49.996;8.238;2023-03-04T01:55:15;47.72;;;17.80;;
12966;SDS011;6548;49.996;8.238;2023-03-04T01:57:42;48.97;;;19.90;;
12966;SDS011;6548;49.996;8.238;2023-03-04T02:02:47;51.25;;;19.98;;
12966;SDS011;6548;49.996;8.238;2023-03-04T02:05:14;58.55;;;19.77;;
12966;SDS011;6548;49.996;8.238;2023-03-04T02:07:40;44.35;;;16.70;;
12966;SDS011;6548;49.996;8.238;2023-03-04T02:10:07;52.03;;;19.73;;
12966;SDS011;6548;49.996;8.238;2023-03-04T02:12:34;47.03;;;16.33;;
12966;SDS011;6548;49.996;8.238;2023-03-04T02:14:59;50.00;;;19.38;;
12966;SDS011;6548;49.996;8.238;2023-03-04T02:17:25;47.92;;;18.45;;
12966;SDS011;6548;49.996;8.238;2023-03-04T02:19:57;53.40;;;18.50;;
12966;SDS011;6548;49.996;8.238;2023-03-04T02:22:32;51.58;;;19.63;;
12966;SDS011;6548;49.996;8.238;2023-03-04T02:25:03;49.58;;;18.90;;
12966;SDS011;6548;49.996;8.238;2023-03-04T02:27:35;44.03;;;18.38;;
12966;SDS011;6548;49.996;8.238;2023-03-04T02:30:00;51.08;;;17.10;;
12966;SDS011;6548;49.996;8.238;2023-03-04T02:32:26;44.90;;;17.35;;
12966;SDS011;6548;49.996;8.238;2023-03-04T02:34:51;47.90;;;17.20;;
12966;SDS011;6548;49.996;8.238;2023-03-04T02:37:17;50.60;;;17.33;;
12966;SDS011;6548;49.996;8.238;2023-03-04T02:39:44;45.88;;;17.13;;
12966;SDS011;6548;49.996;8.238;2023-03-04T02:42:11;38.33;;;18.05;;
12966;SDS011;6548;49.996;8.238;2023-03-04T02:44:38;46.53;;;17.42;;
12966;SDS011;6548;49.996;8.238;2023-03-04T02:47:08;49.47;;;15.98;;
12966;SDS011;6548;49.996;8.238;2023-03-04T02:49:36;42.10;;;15.98;;
12966;SDS011;6548;49.996;8.238;2023-03-04T02:52:04;47.78;;;17.00;;
12966;SDS011;6548;49.996;8.238;2023-03-04T02:54:31;54.22;;;16.77;;
12966;SDS011;6548;49.996;8.238;2023-03-04T02:56:58;52.10;;;16.50;;
12966;SDS011;6548;49.996;8.238;2023-03-04T02:59:28;47.13;;;16.70;;
12966;SDS011;6548;49.996;8.238;2023-03-04T03:01:54;47.30;;;16.73;;
12966;SDS011;6548;49.996;8.238;2023-03-04T03:04:20;44.30;;;17.40;;
12966;SDS011;6548;49.996;8.238;2023-03-04T03:06:46;40.10;;;16.88;;
12966;SDS011;6548;49.996;8.238;2023-03-04T03:09:12;44.60;;;16.92;;
12966;SDS011;6548;49.996;8.238;2023-03-04T03:11:38;44.90;;;18.75;;
12966;SDS011;6548;49.996;8.238;2023-03-04T03:14:03;45.05;;;16.00;;
12966;SDS011;6548;49.996;8.238;2023-03-04T03:16:29;42.70;;;15.63;;
12966;SDS011;6548;49.996;8.238;2023-03-04T03:18:55;50.25;;;17.15;;
12966;SDS011;6548;49.996;8.238;2023-03-04T03:21:21;45.60;;;17.13;;
12966;SDS011;6548;49.996;8.238;2023-03-04T03:23:46;42.17;;;15.18;;
12966;SDS011;6548;49.996;8.238;2023-03-04T03:26:12;41.22;;;15.32;;
12966;SDS011;6548;49.996;8.238;2023-03-04T03:28:38;46.97;;;18.63;;
12966;SDS011;6548;49.996;8.238;2023-03-04T03:31:03;37.22;;;15.13;;
12966;SDS011;6548;49.996;8.238;2023-03-04T03:33:29;45.20;;;14.93;;
12966;SDS011;6548;49.996;8.238;2023-03-04T03:35:55;47.45;;;19.38;;
12966;SDS011;6548;49.996;8.238;2023-03-04T03:38:20;47.40;;;16.13;;
12966;SDS011;6548;49.996;8.238;2023-03-04T03:40:46;44.03;;;17.48;;
12966;SDS011;6548;49.996;8.238;2023-03-04T03:43:12;39.90;;;14.98;;
12966;SDS011;6548;49.996;8.238;2023-03-04T03:45:37;42.15;;;17.52;;
12966;SDS011;6548;49.996;8.238;2023-03-04T03:48:03;45.45;;;17.08;;
12966;SDS011;6548;49.996;8.238;2023-03-04T03:50:28;36.65;;;16.73;;
12966;SDS011;6548;49.996;8.238;2023-03-04T03:52:54;42.08;;;17.20;;
12966;SDS011;6548;49.996;8.238;2023-03-04T03:55:20;40.60;;;16.60;;
12966;SDS011;6548;49.996;8.238;2023-03-04T03:57:47;39.50;;;15.82;;
12966;SDS011;6548;49.996;8.238;2023-03-04T04:00:12;46.72;;;16.95;;
12966;SDS011;6548;49.996;8.238;2023-03-04T04:02:40;46.97;;;18.40;;
12966;SDS011;6548;49.996;8.238;2023-03-04T04:05:06;42.88;;;16.75;;
12966;SDS011;6548;49.996;8.238;2023-03-04T04:07:32;43.72;;;17.10;;
12966;SDS011;6548;49.996;8.238;2023-03-04T04:09:58;42.05;;;16.63;;
12966;SDS011;6548;49.996;8.238;2023-03-04T04:12:23;41.17;;;16.40;;
12966;SDS011;6548;49.996;8.238;2023-03-04T04:14:49;44.53;;;16.10;;
12966;SDS011;6548;49.996;8.238;2023-03-04T04:17:14;43.13;;;16.50;;
12966;SDS011;6548;49.996;8.238;2023-03-04T04:19:40;40.45;;;16.15;;
12966;SDS011;6548;49.996;8.238;2023-03-04T04:22:06;40.90;;;16.40;;
12966;SDS011;6548;49.996;8.238;2023-03-04T04:24:37;41.85;;;18.45;;
12966;SDS011;6548;49.996;8.238;2023-03-04T04:27:02;38.63;;;16.23;;
12966;SDS011;6548;49.996;8.238;2023-03-04T04:29:28;38.78;;;17.65;;
12966;SDS011;6548;49.996;8.238;2023-03-04T04:31:54;42.78;;;17.52;;
12966;SDS011;6548;49.996;8.238;2023-03-04T04:34:20;45.88;;;19.10;;
12966;SDS011;6548;49.996;8.238;2023-03-04T04:36:45;43.17;;;17.27;;
12966;SDS011;6548;49.996;8.238;2023-03-04T04:39:11;43.92;;;18.33;;
12966;SDS011;6548;49.996;8.238;2023-03-04T04:41:39;47.05;;;17.83;;
12966;SDS011;6548;49.996;8.238;2023-03-04T04:44:06;48.40;;;19.33;;
12966;SDS011;6548;49.996;8.238;2023-03-04T04:46:32;50.97;;;18.80;;
12966;SDS011;6548;49.996;8.238;2023-03-04T04:48:58;49.28;;;18.50;;
12966;SDS011;6548;49.996;8.238;2023-03-04T04:51:23;39.35;;;18.08;;
12966;SDS011;6548;49.996;8.238;2023-03-04T04:53:49;44.85;;;18.42;;
12966;SDS011;6548;49.996;8.238;2023-03-04T04:56:16;45.72;;;18.13;;
12966;SDS011;6548;49.996;8.238;2023-03-04T04:58:43;46.13;;;19.10;;
12966;SDS011;6548;49.996;8.238;2023-03-04T05:01:09;42.30;;;18.50;;
12966;SDS011;6548;49.996;8.238;2023-03-04T05:03:35;45.05;;;19.67;;
12966;SDS011;6548;49.996;8.238;2023-03-04T05:06:02;47.80;;;20.08;;
12966;SDS011;6548;49.996;8.238;2023-03-04T05:08:29;42.38;;;18.13;;
12966;SDS011;6548;49.996;8.238;2023-03-04T05:10:55;43.47;;;19.52;;
12966;SDS011;6548;49.996;8.238;2023-03-04T05:13:20;45.42;;;19.88;;
12966;SDS011;6548;49.996;8.238;2023-03-04T05:15:46;41.63;;;18.50;;
12966;SDS011;6548;49.996;8.238;2023-03-04T05:18:12;47.53;;;18.33;;
12966;SDS011;6548;49.996;8.238;2023-03-04T05:20:38;42.58;;;19.92;;
12966;SDS011;6548;49.996;8.238;2023-03-04T05:23:03;44.72;;;18.13;;
12966;SDS011;6548;49.996;8.238;2023-03-04T05:25:29;38.20;;;18.13;;
12966;SDS011;6548;49.996;8.238;2023-03-04T05:27:54;41.08;;;18.75;;
12966;SDS011;6548;49.996;8.238;2023-03-04T05:30:20;39.25;;;19.27;;
12966;SDS011;6548;49.996;8.238;2023-03-04T05:32:45;45.55;;;18.63;;
12966;SDS011;6548;49.996;8.238;2023-03-04T05:35:11;38.55;;;18.13;;
12966;SDS011;6548;49.996;8.238;2023-03-04T05:37:36;43.33;;;19.02;;
12966;SDS011;6548;49.996;8.238;2023-03-04T05:40:02;43.15;;;18.00;;
12966;SDS011;6548;49.996;8.238;2023-03-04T05:42:29;38.58;;;19.45;;
12966;SDS011;6548;49.996;8.238;2023-03-04T05:44:54;41.28;;;19.77;;
12966;SDS011;6548;49.996;8.238;2023-03-04T05:47:20;35.35;;;15.85;;
12966;SDS011;6548;49.996;8.238;2023-03-04T05:49:46;37.25;;;18.15;;
12966;SDS011;6548;49.996;8.238;2023-03-04T05:52:11;42.50;;;19.15;;
12966;SDS011;6548;49.996;8.238;2023-03-04T05:54:37;36.35;;;17.27;;
12966;SDS011;6548;49.996;8.238;2023-03-04T05:57:02;37.85;;;15.80;;
12966;SDS011;6548;49.996;8.238;2023-03-04T05:59:28;41.08;;;17.15;;
12966;SDS011;6548;49.996;8.238;2023-03-04T06:01:53;33.58;;;16.05;;
12966;SDS011;6548;49.996;8.238;2023-03-04T06:04:19;34.67;;;15.20;;
12966;SDS011;6548;49.996;8.238;2023-03-04T06:06:44;34.50;;;17.73;;
12966;SDS011;6548;49.996;8.238;2023-03-04T06:09:11;35.22;;;15.65;;
12966;SDS011;6548;49.996;8.238;2023-03-04T06:11:37;33.50;;;14.27;;
12966;SDS011;6548;49.996;8.238;2023-03-04T06:14:03;32.60;;;15.88;;
12966;SDS011;6548;49.996;8.238;2023-03-04T06:16:29;32.08;;;14.15;;
12966;SDS011;6548;49.996;8.238;2023-03-04T06:18:55;34.58;;;15.98;;
12966;SDS011;6548;49.996;8.238;2023-03-04T06:21:21;33.95;;;16.33;;
12966;SDS011;6548;49.996;8.238;2023-03-04T06:23:46;39.67;;;15.93;;
12966;SDS011;6548;49.996;8.238;2023-03-04T06:26:12;34.97;;;15.90;;
12966;SDS011;6548;49.996;8.238;2023-03-04T06:28:39;32.38;;;15.13;;
12966;SDS011;6548;49.996;8.238;2023-03-04T06:31:06;37.90;;;15.20;;
12966;SDS011;6548;49.996;8.238;2023-03-04T06:33:31;42.30;;;16.20;;
12966;SDS011;6548;49.996;8.238;2023-03-04T06:35:57;33.17;;;13.80;;
12966;SDS011;6548;49.996;8.238;2023-03-04T06:38:23;31.80;;;15.43;;
12966;SDS011;6548;49.996;8.238;2023-03-04T06:40:50;33.55;;;14.68;;
12966;SDS011;6548;49.996;8.238;2023-03-04T06:43:16;28.00;;;14.10;;
12966;SDS011;6548;49.996;8.238;2023-03-04T06:45:41;38.08;;;15.40;;
12966;SDS011;6548;49.996;8.238;2023-03-04T06:48:07;32.25;;;13.98;;
12966;SDS011;6548;49.996;8.238;2023-03-04T06:50:33;29.17;;;13.93;;
12966;SDS011;6548;49.996;8.238;2023-03-04T06:52:58;34.40;;;14.20;;
12966;SDS011;6548;49.996;8.238;2023-03-04T06:55:24;34.25;;;13.68;;
12966;SDS011;6548;49.996;8.238;2023-03-04T06:57:49;32.65;;;14.00;;
12966;SDS011;6548;49.996;8.238;2023-03-04T07:00:15;31.98;;;13.70;;
12966;SDS011;6548;49.996;8.238;2023-03-04T07:02:41;28.27;;;12.93;;
12966;SDS011;6548;49.996;8.238;2023-03-04T07:05:08;32.08;;;12.93;;
12966;SDS011;6548;49.996;8.238;2023-03-04T07:07:34;31.60;;;13.27;;
12966;SDS011;6548;49.996;8.238;2023-03-04T07:10:00;26.65;;;12.43;;
12966;SDS011;6548;49.996;8.238;2023-03-04T07:12:25;26.73;;;11.00;;
12966;SDS011;6548;49.996;8.238;2023-03-04T07:14:51;28.63;;;12.65;;
12966;SDS011;6548;49.996;8.238;2023-03-04T07:17:16;33.72;;;14.00;;
12966;SDS011;6548;49.996;8.238;2023-03-04T07:19:42;26.73;;;12.65;;
12966;SDS011;6548;49.996;8.238;2023-03-04T07:22:08;34.35;;;12.07;;
12966;SDS011;6548;49.996;8.238;2023-03-04T07:24:34;29.27;;;11.20;;
12966;SDS011;6548;49.996;8.238;2023-03-04T07:27:00;29.33;;;12.00;;
12966;SDS011;6548;49.996;8.238;2023-03-04T07:29:25;30.52;;;11.90;;
12966;SDS011;6548;49.996;8.238;2023-03-04T07:31:51;29.17;;;12.93;;
12966;SDS011;6548;49.996;8.238;2023-03-04T07:34:16;27.10;;;10.93;;
12966;SDS011;6548;49.996;8.238;2023-03-04T07:36:43;27.63;;;11.75;;
12966;SDS011;6548;49.996;8.238;2023-03-04T07:39:09;26.88;;;12.40;;
12966;SDS011;6548;49.996;8.238;2023-03-04T07:41:37;27.67;;;12.45;;
12966;SDS011;6548;49.996;8.238;2023-03-04T07:44:03;27.27;;;11.82;;
12966;SDS011;6548;49.996;8.238;2023-03-04T07:46:30;26.73;;;11.27;;
12966;SDS011;6548;49.996;8.238;2023-03-04T07:48:56;28.13;;;11.50;;
12966;SDS011;6548;49.996;8.238;2023-03-04T07:51:23;26.08;;;11.70;;
12966;SDS011;6548;49.996;8.238;2023-03-04T07:53:51;26.45;;;11.35;;
12966;SDS011;6548;49.996;8.238;2023-03-04T07:56:22;27.13;;;12.75;;
12966;SDS011;6548;49.996;8.238;2023-03-04T07:58:49;28.73;;;12.52;;
12966;SDS011;6548;49.996;8.238;2023-03-04T08:01:20;28.50;;;11.55;;
12966;SDS011;6548;49.996;8.238;2023-03-04T08:03:48;27.85;;;11.82;;
12966;SDS011;6548;49.996;8.238;2023-03-04T08:06:15;21.85;;;10.48;;
12966;SDS011;6548;49.996;8.238;2023-03-04T08:08:41;25.35;;;12.02;;
12966;SDS011;6548;49.996;8.238;2023-03-04T08:11:09;29.02;;;10.82;;
12966;SDS011;6548;49.996;8.238;2023-03-04T08:13:40;28.52;;;12.02;;
12966;SDS011;6548;49.996;8.238;2023-03-04T08:16:05;23.02;;;10.23;;
12966;SDS011;6548;49.996;8.238;2023-03-04T08:18:31;22.67;;;9.85;;
12966;SDS011;6548;49.996;8.238;2023-03-04T08:20:58;22.67;;;10.50;;
12966;SDS011;6548;49.996;8.238;2023-03-04T08:23:24;28.63;;;10.63;;
12966;SDS011;6548;49.996;8.238;2023-03-04T08:25:49;22.73;;;10.63;;
12966;SDS011;6548;49.996;8.238;2023-03-04T08:28:15;29.15;;;9.77;;
12966;SDS011;6548;49.996;8.238;2023-03-04T08:30:41;31.05;;;10.68;;
12966;SDS011;6548;49.996;8.238;2023-03-04T08:33:07;28.60;;;12.80;;
12966;SDS011;6548;49.996;8.238;2023-03-04T08:35:37;32.55;;;10.25;;
12966;SDS011;6548;49.996;8.238;2023-03-04T08:38:04;23.45;;;10.85;;
12966;SDS011;6548;49.996;8.238;2023-03-04T08:40:29;30.25;;;10.73;;
12966;SDS011;6548;49.996;8.238;2023-03-04T08:42:55;30.35;;;11.10;;
12966;SDS011;6548;49.996;8.238;2023-03-04T08:45:21;24.63;;;10.65;;
12966;SDS011;6548;49.996;8.238;2023-03-04T08:47:46;32.90;;;13.07;;
12966;SDS011;6548;49.996;8.238;2023-03-04T08:50:12;26.23;;;10.73;;
12966;SDS011;6548;49.996;8.238;2023-03-04T08:52:38;23.73;;;9.52;;
12966;SDS011;6548;49.996;8.238;2023-03-04T08:55:03;30.20;;;10.90;;
12966;SDS011;6548;49.996;8.238;2023-03-04T08:57:29;25.60;;;9.90;;
12966;SDS011;6548;49.996;8.238;2023-03-04T08:59:55;29.40;;;11.40;;
12966;SDS011;6548;49.996;8.238;2023-03-04T09:02:20;25.52;;;9.88;;
12966;SDS011;6548;49.996;8.238;2023-03-04T09:04:46;21.63;;;9.90;;
12966;SDS011;6548;49.996;8.238;2023-03-04T09:07:11;26.80;;;10.88;;
12966;SDS011;6548;49.996;8.238;2023-03-04T09:09:38;23.25;;;10.38;;
12966;SDS011;6548;49.996;8.238;2023-03-04T09:12:04;19.98;;;8.65;;
12966;SDS011;6548;49.996;8.238;2023-03-04T09:14:29;24.95;;;9.75;;
12966;SDS011;6548;49.996;8.238;2023-03-04T09:16:56;22.38;;;10.20;;
12966;SDS011;6548;49.996;8.238;2023-03-04T09:19:22;27.00;;;9.48;;
12966;SDS011;6548;49.996;8.238;2023-03-04T09:21:48;24.08;;;9.77;;
12966;SDS011;6548;49.996;8.238;2023-03-04T09:24:13;20.95;;;9.20;;
12966;SDS011;6548;49.996;8.238;2023-03-04T09:26:39;16.77;;;8.02;;
12966;SDS011;6548;49.996;8.238;2023-03-04T09:29:05;18.50;;;7.53;;
12966;SDS011;6548;49.996;8.238;2023-03-04T09:31:30;22.45;;;9.48;;
12966;SDS011;6548;49.996;8.238;2023-03-04T09:33:57;25.83;;;9.38;;
12966;SDS011;6548;49.996;8.238;2023-03-04T09:36:23;19.67;;;7.68;;
12966;SDS011;6548;49.996;8.238;2023-03-04T09:38:49;18.73;;;8.55;;
12966;SDS011;6548;49.996;8.238;2023-03-04T09:41:22;22.77;;;9.90;;
12966;SDS011;6548;49.996;8.238;2023-03-04T09:43:51;25.60;;;9.05;;
12966;SDS011;6548;49.996;8.238;2023-03-04T09:46:21;19.65;;;8.18;;
12966;SDS011;6548;49.996;8.238;2023-03-04T09:49:05;21.67;;;7.43;;
12966;SDS011;6548;49.996;8.238;2023-03-04T09:54:04;18.27;;;7.53;;
12966;SDS011;6548;49.996;8.238;2023-03-04T09:56:36;16.30;;;8.10;;
12966;SDS011;6548;49.996;8.238;2023-03-04T10:06:47;19.73;;;7.88;;
12966;SDS011;6548;49.996;8.238;2023-03-04T10:12:11;14.73;;;7.80;;
12966;SDS011;6548;49.996;8.238;2023-03-04T10:14:39;21.23;;;7.95;;
12966;SDS011;6548;49.996;8.238;2023-03-04T10:22:33;14.25;;;6.93;;
12966;SDS011;6548;49.996;8.238;2023-03-04T10:32:48;16.48;;;7.80;;
12966;SDS011;6548;49.996;8.238;2023-03-04T10:35:14;18.85;;;7.45;;
12966;SDS011;6548;49.996;8.238;2023-03-04T10:37:46;16.55;;;7.45;;
12966;SDS011;6548;49.996;8.238;2023-03-04T10:40:18;13.48;;;6.38;;
12966;SDS011;6548;49.996;8.238;2023-03-04T10:42:47;18.45;;;6.88;;
12966;SDS011;6548;49.996;8.238;2023-03-04T10:45:22;17.63;;;6.60;;
12966;SDS011;6548;49.996;8.238;2023-03-04T10:47:53;16.80;;;7.10;;
12966;SDS011;6548;49.996;8.238;2023-03-04T10:50:27;18.08;;;7.30;;
12966;SDS011;6548;49.996;8.238;2023-03-04T10:52:53;17.55;;;6.85;;
12966;SDS011;6548;49.996;8.238;2023-03-04T10:55:23;13.80;;;6.68;;
12966;SDS011;6548;49.996;8.238;2023-03-04T10:57:55;16.05;;;6.25;;
12966;SDS011;6548;49.996;8.238;2023-03-04T11:00:31;14.70;;;6.88;;
12966;SDS011;6548;49.996;8.238;2023-03-04T11:06:02;17.30;;;5.20;;
12966;SDS011;6548;49.996;8.238;2023-03-04T11:08:56;15.40;;;6.22;;
12966;SDS011;6548;49.996;8.238;2023-03-04T11:13:52;13.15;;;6.45;;
12966;SDS011;6548;49.996;8.238;2023-03-04T11:16:28;14.50;;;6.25;;
12966;SDS011;6548;49.996;8.238;2023-03-04T11:18:57;13.77;;;5.93;;
12966;SDS011;6548;49.996;8.238;2023-03-04T11:21:30;17.75;;;6.10;;
12966;SDS011;6548;49.996;8.238;2023-03-04T11:27:39;15.38;;;5.43;;
12966;SDS011;6548;49.996;8.238;2023-03-04T11:29:50;13.35;;;6.07;;
12966;SDS011;6548;49.996;8.238;2023-03-04T11:32:26;17.85;;;6.72;;
12966;SDS011;6548;49.996;8.238;2023-03-04T11:39:57;11.40;;;5.80;;
12966;SDS011;6548;49.996;8.238;2023-03-04T11:45:31;15.52;;;6.05;;
12966;SDS011;6548;49.996;8.238;2023-03-04T11:48:41;11.57;;;4.45;;
12966;SDS011;6548;49.996;8.238;2023-03-04T11:56:43;13.15;;;4.80;;
12966;SDS011;6548;49.996;8.238;2023-03-04T12:04:50;12.00;;;5.43;;
12966;SDS011;6548;49.996;8.238;2023-03-04T12:10:32;11.43;;;5.13;;
12966;SDS011;6548;49.996;8.238;2023-03-04T12:13:11;11.05;;;4.90;;
12966;SDS011;6548;49.996;8.238;2023-03-04T12:15:58;6.93;;;3.88;;
12966;SDS011;6548;49.996;8.238;2023-03-04T12:19:05;11.55;;;4.75;;
12966;SDS011;6548;49.996;8.238;2023-03-04T12:24:44;18.38;;;10.57;;
12966;SDS011;6548;49.996;8.238;2023-03-04T12:27:23;9.68;;;5.50;;
12966;SDS011;6548;49.996;8.238;2023-03-04T12:32:49;11.50;;;4.15;;
12966;SDS011;6548;49.996;8.238;2023-03-04T12:43:59;7.47;;;3.75;;
12966;SDS011;6548;49.996;8.238;2023-03-04T12:52:17;26.42;;;14.40;;
12966;SDS011;6548;49.996;8.238;2023-03-04T12:54:47;10.98;;;5.25;;
12966;SDS011;6548;49.996;8.238;2023-03-04T12:57:16;8.13;;;4.45;;
12966;SDS011;6548;49.996;8.238;2023-03-04T12:59:51;21.42;;;10.43;;
12966;SDS011;6548;49.996;8.238;2023-03-04T13:02:34;12.35;;;6.47;;
12966;SDS011;6548;49.996;8.238;2023-03-04T13:05:15;11.00;;;6.07;;
12966;SDS011;6548;49.996;8.238;2023-03-04T13:10:31;12.02;;;5.65;;
12966;SDS011;6548;49.996;8.238;2023-03-04T13:12:57;12.82;;;6.57;;
12966;SDS011;6548;49.996;8.238;2023-03-04T13:17:50;11.68;;;3.80;;
12966;SDS011;6548;49.996;8.238;2023-03-04T13:20:39;10.45;;;4.03;;
12966;SDS011;6548;49.996;8.238;2023-03-04T13:28:23;13.68;;;5.00;;
12966;SDS011;6548;49.996;8.238;2023-03-04T13:38:20;9.80;;;5.30;;
12966;SDS011;6548;49.996;8.238;2023-03-04T13:48:42;28.33;;;14.25;;
12966;SDS011;6548;49.996;8.238;2023-03-04T13:51:15;64.30;;;28.35;;
12966;SDS011;6548;49.996;8.238;2023-03-04T13:56:23;25.08;;;12.85;;
12966;SDS011;6548;49.996;8.238;2023-03-04T14:04:21;14.30;;;6.05;;
12966;SDS011;6548;49.996;8.238;2023-03-04T14:06:51;11.23;;;6.20;;
12966;SDS011;6548;49.996;8.238;2023-03-04T14:09:22;11.02;;;4.72;;
12966;SDS011;6548;49.996;8.238;2023-03-04T14:11:50;10.45;;;4.47;;
12966;SDS011;6548;49.996;8.238;2023-03-04T14:14:23;7.93;;;4.03;;
12966;SDS011;6548;49.996;8.238;2023-03-04T14:17:14;6.57;;;3.83;;
12966;SDS011;6548;49.996;8.238;2023-03-04T14:19:46;11.35;;;4.65;;
12966;SDS011;6548;49.996;8.238;2023-03-04T14:22:24;9.57;;;4.35;;
12966;SDS011;6548;49.996;8.238;2023-03-04T14:27:21;8.20;;;5.07;;
12966;SDS011;6548;49.996;8.238;2023-03-04T14:29:54;11.77;;;5.03;;
12966;SDS011;6548;49.996;8.238;2023-03-04T14:32:21;13.38;;;5.55;;
12966;SDS011;6548;49.996;8.238;2023-03-04T14:34:47;13.50;;;4.82;;
12966;SDS011;6548;49.996;8.238;2023-03-04T14:37:34;13.65;;;4.50;;
12966;SDS011;6548;49.996;8.238;2023-03-04T14:40:23;9.48;;;4.53;;
12966;SDS011;6548;49.996;8.238;2023-03-04T14:43:03;16.88;;;8.80;;
12966;SDS011;6548;49.996;8.238;2023-03-04T14:45:32;13.60;;;6.38;;
12966;SDS011;6548;49.996;8.238;2023-03-04T14:48:04;25.27;;;13.95;;
12966;SDS011;6548;49.996;8.238;2023-03-04T14:50:31;27.73;;;16.52;;
12966;SDS011;6548;49.996;8.238;2023-03-04T14:53:12;14.13;;;7.88;;
12966;SDS011;6548;49.996;8.238;2023-03-04T14:55:52;11.23;;;6.25;;
12966;SDS011;6548;49.996;8.238;2023-03-04T14:58:24;17.98;;;9.40;;
12966;SDS011;6548;49.996;8.238;2023-03-04T15:01:05;13.82;;;7.75;;
12966;SDS011;6548;49.996;8.238;2023-03-04T15:03:31;14.75;;;6.65;;
12966;SDS011;6548;49.996;8.238;2023-03-04T15:06:15;21.08;;;9.15;;
12966;SDS011;6548;49.996;8.238;2023-03-04T15:08:43;73.32;;;36.78;;
12966;SDS011;6548;49.996;8.238;2023-03-04T15:11:13;34.70;;;17.48;;
12966;SDS011;6548;49.996;8.238;2023-03-04T15:13:47;12.77;;;7.00;;
12966;SDS011;6548;49.996;8.238;2023-03-04T15:16:16;15.35;;;5.63;;
12966;SDS011;6548;49.996;8.238;2023-03-04T15:18:57;63.97;;;30.48;;
12966;SDS011;6548;49.996;8.238;2023-03-04T15:21:33;20.23;;;9.18;;
12966;SDS011;6548;49.996;8.238;2023-03-04T15:24:05;19.17;;;9.30;;
12966;SDS011;6548;49.996;8.238;2023-03-04T15:26:33;21.33;;;10.82;;
12966;SDS011;6548;49.996;8.238;2023-03-04T15:29:03;16.42;;;7.53;;
12966;SDS011;6548;49.996;8.238;2023-03-04T15:31:42;34.78;;;20.90;;
12966;SDS011;6548;49.996;8.238;2023-03-04T15:34:13;22.55;;;12.88;;
12966;SDS011;6548;49.996;8.238;2023-03-04T15:36:40;20.52;;;11.75;;
12966;SDS011;6548;49.996;8.238;2023-03-04T15:39:09;27.83;;;19.42;;
12966;SDS011;6548;49.996;8.238;2023-03-04T15:41:37;13.70;;;8.77;;
12966;SDS011;6548;49.996;8.238;2023-03-04T15:44:02;18.48;;;8.00;;
12966;SDS011;6548;49.996;8.238;2023-03-04T15:46:28;14.25;;;7.32;;
12966;SDS011;6548;49.996;8.238;2023-03-04T15:48:53;14.23;;;8.40;;
12966;SDS011;6548;49.996;8.238;2023-03-04T15:51:19;21.30;;;11.73;;
12966;SDS011;6548;49.996;8.238;2023-03-04T15:53:50;32.25;;;15.00;;
12966;SDS011;6548;49.996;8.238;2023-03-04T15:56:24;15.45;;;7.35;;
12966;SDS011;6548;49.996;8.238;2023-03-04T15:58:55;29.55;;;14.95;;
12966;SDS011;6548;49.996;8.238;2023-03-04T16:01:31;16.25;;;8.38;;
12966;SDS011;6548;49.996;8.238;2023-03-04T16:03:57;21.92;;;9.77;;
12966;SDS011;6548;49.996;8.238;2023-03-04T16:06:23;19.13;;;10.25;;
12966;SDS011;6548;49.996;8.238;2023-03-04T16:08:52;17.05;;;8.27;;
12966;SDS011;6548;49.996;8.238;2023-03-04T16:11:22;10.35;;;5.35;;
12966;SDS011;6548;49.996;8.238;2023-03-04T16:13:49;11.93;;;7.15;;
12966;SDS011;6548;49.996;8.238;2023-03-04T16:16:15;16.08;;;11.13;;
12966;SDS011;6548;49.996;8.238;2023-03-04T16:18:42;14.65;;;7.63;;
12966;SDS011;6548;49.996;8.238;2023-03-04T16:21:12;10.88;;;6.68;;
12966;SDS011;6548;49.996;8.238;2023-03-04T16:23:41;11.15;;;7.13;;
12966;SDS011;6548;49.996;8.238;2023-03-04T16:26:23;10.80;;;5.80;;
12966;SDS011;6548;49.996;8.238;2023-03-04T16:28:50;13.93;;;7.82;;
12966;SDS011;6548;49.996;8.238;2023-03-04T16:31:16;11.05;;;5.82;;
12966;SDS011;6548;49.996;8.238;2023-03-04T16:33:43;9.95;;;4.45;;
12966;SDS011;6548;49.996;8.238;2023-03-04T16:36:17;14.15;;;6.93;;
12966;SDS011;6548;49.996;8.238;2023-03-04T16:38:46;9.50;;;5.30;;
12966;SDS011;6548;49.996;8.238;2023-03-04T16:41:13;9.43;;;5.38;;